sensor_id;sensor_type;location;lat;lon;timestamp;temperature;humidity
18412;DHT22;27097;51.738;19.472;2023-03-20T00:01:13;22.40;68.60
18412;DHT22;27097;51.738;19.472;2023-03-20T00:03:41;22.40;68.50
18412;DHT22;27097;51.738;19.472;2023-03-20T00:06:13;22.40;68.60
18412;DHT22;27097;51.738;19.472;2023-03-20T00:08:41;22.40;68.50
18412;DHT22;27097;51.738;19.472;2023-03-20T00:11:21;22.40;68.50
18412;DHT22;27097;51.738;19.472;2023-03-20T00:13:56;22.40;68.10
18412;DHT22;27097;51.738;19.472;2023-03-20T00:16:28;22.40;67.30
18412;DHT22;27097;51.738;19.472;2023-03-20T00:18:56;22.40;67.20
18412;DHT22;27097;51.738;19.472;2023-03-20T00:21:23;22.40;67.30
18412;DHT22;27097;51.738;19.472;2023-03-20T00:23:50;22.40;67.40
18412;DHT22;27097;51.738;19.472;2023-03-20T00:26:18;22.40;67.10
18412;DHT22;27097;51.738;19.472;2023-03-20T00:28:46;22.40;66.40
18412;DHT22;27097;51.738;19.472;2023-03-20T00:31:21;22.40;66.70
18412;DHT22;27097;51.738;19.472;2023-03-20T00:33:49;22.40;65.20
18412;DHT22;27097;51.738;19.472;2023-03-20T00:36:16;22.40;66.30
18412;DHT22;27097;51.738;19.472;2023-03-20T00:38:43;22.40;65.80
18412;DHT22;27097;51.738;19.472;2023-03-20T00:41:21;22.40;64.70
18412;DHT22;27097;51.738;19.472;2023-03-20T00:43:51;22.40;64.50
18412;DHT22;27097;51.738;19.472;2023-03-20T00:46:19;22.40;64.50
18412;DHT22;27097;51.738;19.472;2023-03-20T00:48:46;22.40;64.60
18412;DHT22;27097;51.738;19.472;2023-03-20T00:51:14;22.40;64.20
18412;DHT22;27097;51.738;19.472;2023-03-20T00:53:41;22.40;63.90
18412;DHT22;27097;51.738;19.472;2023-03-20T00:56:34;22.40;63.10
18412;DHT22;27097;51.738;19.472;2023-03-20T00:59:02;22.40;62.90
18412;DHT22;27097;51.738;19.472;2023-03-20T01:01:31;22.40;62.80
18412;DHT22;27097;51.738;19.472;2023-03-20T01:03:58;22.30;62.60
18412;DHT22;27097;51.738;19.472;2023-03-20T01:06:25;22.40;63.00
18412;DHT22;27097;51.738;19.472;2023-03-20T01:08:53;22.30;62.70
18412;DHT22;27097;51.738;19.472;2023-03-20T01:11:23;22.30;62.00
18412;DHT22;27097;51.738;19.472;2023-03-20T01:13:50;22.30;57.80
18412;DHT22;27097;51.738;19.472;2023-03-20T01:16:20;22.30;57.10
18412;DHT22;27097;51.738;19.472;2023-03-20T01:18:49;22.30;57.20
18412;DHT22;27097;51.738;19.472;2023-03-20T01:21:15;22.20;56.60
18412;DHT22;27097;51.738;19.472;2023-03-20T01:23:42;22.20;56.60
18412;DHT22;27097;51.738;19.472;2023-03-20T01:26:21;22.20;58.80
18412;DHT22;27097;51.738;19.472;2023-03-20T01:28:50;22.20;60.70
18412;DHT22;27097;51.738;19.472;2023-03-20T01:31:17;22.20;63.50
18412;DHT22;27097;51.738;19.472;2023-03-20T01:33:44;22.20;65.30
18412;DHT22;27097;51.738;19.472;2023-03-20T01:36:14;22.20;65.10
18412;DHT22;27097;51.738;19.472;2023-03-20T01:38:43;22.20;65.40
18412;DHT22;27097;51.738;19.472;2023-03-20T01:41:12;22.30;65.20
18412;DHT22;27097;51.738;19.472;2023-03-20T01:43:41;22.30;65.20
18412;DHT22;27097;51.738;19.472;2023-03-20T01:46:16;22.30;65.70
18412;DHT22;27097;51.738;19.472;2023-03-20T01:49:04;22.30;65.90
18412;DHT22;27097;51.738;19.472;2023-03-20T01:51:34;22.30;66.10
18412;DHT22;27097;51.738;19.472;2023-03-20T01:54:05;22.20;66.70
18412;DHT22;27097;51.738;19.472;2023-03-20T01:56:37;22.30;66.60
18412;DHT22;27097;51.738;19.472;2023-03-20T01:59:08;22.30;66.70
18412;DHT22;27097;51.738;19.472;2023-03-20T02:01:36;22.30;67.00
18412;DHT22;27097;51.738;19.472;2023-03-20T02:04:04;22.30;66.20
18412;DHT22;27097;51.738;19.472;2023-03-20T02:06:36;22.30;66.60
18412;DHT22;27097;51.738;19.472;2023-03-20T02:09:05;22.30;67.00
18412;DHT22;27097;51.738;19.472;2023-03-20T02:11:36;22.30;67.00
18412;DHT22;27097;51.738;19.472;2023-03-20T02:14:03;22.30;67.00
18412;DHT22;27097;51.738;19.472;2023-03-20T02:16:31;22.30;67.40
18412;DHT22;27097;51.738;19.472;2023-03-20T02:18:58;22.30;67.30
18412;DHT22;27097;51.738;19.472;2023-03-20T02:21:58;22.30;67.30
18412;DHT22;27097;51.738;19.472;2023-03-20T02:24:54;22.30;66.80
18412;DHT22;27097;51.738;19.472;2023-03-20T02:27:32;22.30;67.00
18412;DHT22;27097;51.738;19.472;2023-03-20T02:30:28;22.30;67.10
18412;DHT22;27097;51.738;19.472;2023-03-20T02:33:31;22.30;67.10
18412;DHT22;27097;51.738;19.472;2023-03-20T02:39:17;22.30;67.30
18412;DHT22;27097;51.738;19.472;2023-03-20T02:41:53;22.30;67.70
18412;DHT22;27097;51.738;19.472;2023-03-20T02:44:31;22.30;68.00
18412;DHT22;27097;51.738;19.472;2023-03-20T02:47:02;22.30;67.70
18412;DHT22;27097;51.738;19.472;2023-03-20T02:49:44;22.30;67.60
18412;DHT22;27097;51.738;19.472;2023-03-20T02:52:17;22.30;67.80
18412;DHT22;27097;51.738;19.472;2023-03-20T02:54:55;22.30;67.70
18412;DHT22;27097;51.738;19.472;2023-03-20T02:57:33;22.30;68.00
18412;DHT22;27097;51.738;19.472;2023-03-20T03:00:07;22.30;67.40
18412;DHT22;27097;51.738;19.472;2023-03-20T03:02:38;22.30;67.90
18412;DHT22;27097;51.738;19.472;2023-03-20T03:05:10;22.30;68.60
18412;DHT22;27097;51.738;19.472;2023-03-20T03:07:40;22.30;67.90
18412;DHT22;27097;51.738;19.472;2023-03-20T03:10:11;22.30;68.00
18412;DHT22;27097;51.738;19.472;2023-03-20T03:12:41;22.30;68.10
18412;DHT22;27097;51.738;19.472;2023-03-20T03:15:14;22.30;68.00
18412;DHT22;27097;51.738;19.472;2023-03-20T03:17:44;22.30;68.10
18412;DHT22;27097;51.738;19.472;2023-03-20T03:20:19;22.30;68.30
18412;DHT22;27097;51.738;19.472;2023-03-20T03:22:46;22.30;68.70
18412;DHT22;27097;51.738;19.472;2023-03-20T03:25:15;22.30;68.60
18412;DHT22;27097;51.738;19.472;2023-03-20T03:27:45;22.30;68.40
18412;DHT22;27097;51.738;19.472;2023-03-20T03:30:16;22.30;69.60
18412;DHT22;27097;51.738;19.472;2023-03-20T03:32:49;22.30;67.60
18412;DHT22;27097;51.738;19.472;2023-03-20T03:35:19;22.30;68.50
18412;DHT22;27097;51.738;19.472;2023-03-20T03:37:51;22.30;68.40
18412;DHT22;27097;51.738;19.472;2023-03-20T03:40:29;22.30;68.60
18412;DHT22;27097;51.738;19.472;2023-03-20T03:43:02;22.30;68.60
18412;DHT22;27097;51.738;19.472;2023-03-20T03:45:34;22.30;68.90
18412;DHT22;27097;51.738;19.472;2023-03-20T03:48:05;22.30;68.60
18412;DHT22;27097;51.738;19.472;2023-03-20T03:50:36;22.30;68.50
18412;DHT22;27097;51.738;19.472;2023-03-20T03:53:09;22.30;68.50
18412;DHT22;27097;51.738;19.472;2023-03-20T03:55:40;22.30;68.60
18412;DHT22;27097;51.738;19.472;2023-03-20T03:58:11;22.30;68.10
18412;DHT22;27097;51.738;19.472;2023-03-20T04:00:41;22.30;68.70
18412;DHT22;27097;51.738;19.472;2023-03-20T04:03:09;22.30;68.90
18412;DHT22;27097;51.738;19.472;2023-03-20T04:05:40;22.30;68.90
18412;DHT22;27097;51.738;19.472;2023-03-20T04:08:08;22.30;68.90
18412;DHT22;27097;51.738;19.472;2023-03-20T04:10:35;22.30;69.80
18412;DHT22;27097;51.738;19.472;2023-03-20T04:13:03;22.30;69.30
18412;DHT22;27097;51.738;19.472;2023-03-20T04:15:30;22.30;69.10
18412;DHT22;27097;51.738;19.472;2023-03-20T04:17:57;22.30;69.10
18412;DHT22;27097;51.738;19.472;2023-03-20T04:20:24;22.30;69.30
18412;DHT22;27097;51.738;19.472;2023-03-20T04:22:50;22.30;69.40
18412;DHT22;27097;51.738;19.472;2023-03-20T04:25:19;22.30;69.50
18412;DHT22;27097;51.738;19.472;2023-03-20T04:27:46;22.30;69.80
18412;DHT22;27097;51.738;19.472;2023-03-20T04:30:16;22.30;69.60
18412;DHT22;27097;51.738;19.472;2023-03-20T04:32:43;22.30;69.70
18412;DHT22;27097;51.738;19.472;2023-03-20T04:35:10;22.30;69.50
18412;DHT22;27097;51.738;19.472;2023-03-20T04:37:36;22.30;69.30
18412;DHT22;27097;51.738;19.472;2023-03-20T04:40:04;22.30;69.60
18412;DHT22;27097;51.738;19.472;2023-03-20T04:42:31;22.30;69.20
18412;DHT22;27097;51.738;19.472;2023-03-20T04:44:58;22.30;69.20
18412;DHT22;27097;51.738;19.472;2023-03-20T04:47:26;22.30;69.60
18412;DHT22;27097;51.738;19.472;2023-03-20T04:49:53;22.30;69.80
18412;DHT22;27097;51.738;19.472;2023-03-20T04:52:20;22.30;69.60
18412;DHT22;27097;51.738;19.472;2023-03-20T04:54:46;22.30;69.70
18412;DHT22;27097;51.738;19.472;2023-03-20T04:57:16;22.30;69.80
18412;DHT22;27097;51.738;19.472;2023-03-20T04:59:42;22.30;70.00
18412;DHT22;27097;51.738;19.472;2023-03-20T05:02:09;22.30;69.60
18412;DHT22;27097;51.738;19.472;2023-03-20T05:04:41;22.30;69.50
18412;DHT22;27097;51.738;19.472;2023-03-20T05:07:08;22.30;69.90
18412;DHT22;27097;51.738;19.472;2023-03-20T05:09:35;22.30;69.90
18412;DHT22;27097;51.738;19.472;2023-03-20T05:12:02;22.30;70.00
18412;DHT22;27097;51.738;19.472;2023-03-20T05:14:29;22.30;69.90
18412;DHT22;27097;51.738;19.472;2023-03-20T05:16:55;22.30;69.90
18412;DHT22;27097;51.738;19.472;2023-03-20T05:19:22;22.20;70.10
18412;DHT22;27097;51.738;19.472;2023-03-20T05:21:50;22.30;70.00
18412;DHT22;27097;51.738;19.472;2023-03-20T05:24:17;22.30;70.30
18412;DHT22;27097;51.738;19.472;2023-03-20T05:26:45;22.30;70.30
18412;DHT22;27097;51.738;19.472;2023-03-20T05:29:12;22.30;70.90
18412;DHT22;27097;51.738;19.472;2023-03-20T05:31:39;22.30;70.30
18412;DHT22;27097;51.738;19.472;2023-03-20T05:34:06;22.30;70.10
18412;DHT22;27097;51.738;19.472;2023-03-20T05:36:32;22.30;70.40
18412;DHT22;27097;51.738;19.472;2023-03-20T05:39:01;22.30;70.30
18412;DHT22;27097;51.738;19.472;2023-03-20T05:41:27;22.30;70.00
18412;DHT22;27097;51.738;19.472;2023-03-20T05:43:54;22.30;69.90
18412;DHT22;27097;51.738;19.472;2023-03-20T05:46:27;22.30;70.20
18412;DHT22;27097;51.738;19.472;2023-03-20T05:48:55;22.30;70.00
18412;DHT22;27097;51.738;19.472;2023-03-20T05:51:22;22.30;70.10
18412;DHT22;27097;51.738;19.472;2023-03-20T05:53:52;22.30;70.30
18412;DHT22;27097;51.738;19.472;2023-03-20T05:56:24;22.30;70.00
18412;DHT22;27097;51.738;19.472;2023-03-20T05:58:51;22.30;69.80
18412;DHT22;27097;51.738;19.472;2023-03-20T06:01:21;22.30;70.00
18412;DHT22;27097;51.738;19.472;2023-03-20T06:03:48;22.30;70.10
18412;DHT22;27097;51.738;19.472;2023-03-20T06:06:17;22.30;70.20
18412;DHT22;27097;51.738;19.472;2023-03-20T06:08:44;22.40;70.10
18412;DHT22;27097;51.738;19.472;2023-03-20T06:11:11;22.40;70.10
18412;DHT22;27097;51.738;19.472;2023-03-20T06:13:40;22.40;70.00
18412;DHT22;27097;51.738;19.472;2023-03-20T06:16:07;22.40;70.20
18412;DHT22;27097;51.738;19.472;2023-03-20T06:18:34;22.40;70.00
18412;DHT22;27097;51.738;19.472;2023-03-20T06:21:04;22.40;69.80
18412;DHT22;27097;51.738;19.472;2023-03-20T06:23:31;22.40;69.80
18412;DHT22;27097;51.738;19.472;2023-03-20T06:26:01;22.40;69.80
18412;DHT22;27097;51.738;19.472;2023-03-20T06:28:31;22.40;69.60
18412;DHT22;27097;51.738;19.472;2023-03-20T06:30:59;22.40;69.90
18412;DHT22;27097;51.738;19.472;2023-03-20T06:33:26;22.50;69.90
18412;DHT22;27097;51.738;19.472;2023-03-20T06:35:53;22.50;69.90
18412;DHT22;27097;51.738;19.472;2023-03-20T06:38:20;22.50;69.90
18412;DHT22;27097;51.738;19.472;2023-03-20T06:40:47;22.50;69.20
18412;DHT22;27097;51.738;19.472;2023-03-20T06:43:14;22.50;66.10
18412;DHT22;27097;51.738;19.472;2023-03-20T06:45:41;22.40;65.00
18412;DHT22;27097;51.738;19.472;2023-03-20T06:48:09;22.40;65.20
18412;DHT22;27097;51.738;19.472;2023-03-20T06:50:36;22.40;68.40
18412;DHT22;27097;51.738;19.472;2023-03-20T06:53:04;22.40;68.50
18412;DHT22;27097;51.738;19.472;2023-03-20T06:55:31;22.40;69.00
18412;DHT22;27097;51.738;19.472;2023-03-20T06:57:58;22.40;69.30
18412;DHT22;27097;51.738;19.472;2023-03-20T07:00:25;22.40;68.90
18412;DHT22;27097;51.738;19.472;2023-03-20T07:02:52;22.40;69.50
18412;DHT22;27097;51.738;19.472;2023-03-20T07:05:23;22.40;68.60
18412;DHT22;27097;51.738;19.472;2023-03-20T07:07:50;22.40;65.50
18412;DHT22;27097;51.738;19.472;2023-03-20T07:10:17;22.40;67.60
18412;DHT22;27097;51.738;19.472;2023-03-20T07:12:44;22.40;67.70
18412;DHT22;27097;51.738;19.472;2023-03-20T07:15:11;22.40;65.20
18412;DHT22;27097;51.738;19.472;2023-03-20T07:17:38;22.50;64.70
18412;DHT22;27097;51.738;19.472;2023-03-20T07:20:05;22.40;65.20
18412;DHT22;27097;51.738;19.472;2023-03-20T07:22:34;22.50;64.90
18412;DHT22;27097;51.738;19.472;2023-03-20T07:25:01;22.50;67.60
18412;DHT22;27097;51.738;19.472;2023-03-20T07:27:28;22.50;67.60
18412;DHT22;27097;51.738;19.472;2023-03-20T07:29:55;22.50;68.00
18412;DHT22;27097;51.738;19.472;2023-03-20T07:32:22;22.50;67.50
18412;DHT22;27097;51.738;19.472;2023-03-20T07:34:49;22.50;66.50
18412;DHT22;27097;51.738;19.472;2023-03-20T07:37:16;22.50;65.40
18412;DHT22;27097;51.738;19.472;2023-03-20T07:39:44;22.60;64.80
18412;DHT22;27097;51.738;19.472;2023-03-20T07:42:11;22.70;63.90
18412;DHT22;27097;51.738;19.472;2023-03-20T07:44:39;22.70;62.40
18412;DHT22;27097;51.738;19.472;2023-03-20T07:47:06;22.70;60.60
18412;DHT22;27097;51.738;19.472;2023-03-20T07:49:33;22.70;60.10
18412;DHT22;27097;51.738;19.472;2023-03-20T07:52:01;22.70;59.60
18412;DHT22;27097;51.738;19.472;2023-03-20T07:54:28;22.80;59.10
18412;DHT22;27097;51.738;19.472;2023-03-20T07:56:56;22.80;58.90
18412;DHT22;27097;51.738;19.472;2023-03-20T07:59:23;22.80;58.90
18412;DHT22;27097;51.738;19.472;2023-03-20T08:01:49;22.90;59.30
18412;DHT22;27097;51.738;19.472;2023-03-20T08:04:17;22.80;60.20
18412;DHT22;27097;51.738;19.472;2023-03-20T08:06:46;22.90;60.30
18412;DHT22;27097;51.738;19.472;2023-03-20T08:09:13;22.90;61.20
18412;DHT22;27097;51.738;19.472;2023-03-20T08:11:40;22.80;61.50
18412;DHT22;27097;51.738;19.472;2023-03-20T08:14:09;22.80;61.20
18412;DHT22;27097;51.738;19.472;2023-03-20T08:16:36;22.80;61.30
18412;DHT22;27097;51.738;19.472;2023-03-20T08:19:03;22.80;60.90
18412;DHT22;27097;51.738;19.472;2023-03-20T08:21:31;22.80;61.10
18412;DHT22;27097;51.738;19.472;2023-03-20T08:23:58;22.80;60.90
18412;DHT22;27097;51.738;19.472;2023-03-20T08:26:25;22.80;61.00
18412;DHT22;27097;51.738;19.472;2023-03-20T08:28:52;22.80;60.80
18412;DHT22;27097;51.738;19.472;2023-03-20T08:31:20;22.80;61.20
18412;DHT22;27097;51.738;19.472;2023-03-20T08:33:47;22.80;61.50
18412;DHT22;27097;51.738;19.472;2023-03-20T08:36:15;22.80;61.20
18412;DHT22;27097;51.738;19.472;2023-03-20T08:38:45;22.80;61.40
18412;DHT22;27097;51.738;19.472;2023-03-20T08:41:12;22.80;63.80
18412;DHT22;27097;51.738;19.472;2023-03-20T08:43:39;22.80;63.60
18412;DHT22;27097;51.738;19.472;2023-03-20T08:46:06;22.80;62.80
18412;DHT22;27097;51.738;19.472;2023-03-20T08:48:34;22.80;63.40
18412;DHT22;27097;51.738;19.472;2023-03-20T08:51:02;22.80;62.80
18412;DHT22;27097;51.738;19.472;2023-03-20T08:53:29;22.80;63.30
18412;DHT22;27097;51.738;19.472;2023-03-20T08:55:55;22.80;63.30
18412;DHT22;27097;51.738;19.472;2023-03-20T08:58:22;22.80;63.30
18412;DHT22;27097;51.738;19.472;2023-03-20T09:00:49;22.80;62.70
18412;DHT22;27097;51.738;19.472;2023-03-20T09:03:18;22.80;63.00
18412;DHT22;27097;51.738;19.472;2023-03-20T09:05:48;22.80;63.00
18412;DHT22;27097;51.738;19.472;2023-03-20T09:08:15;22.80;63.60
18412;DHT22;27097;51.738;19.472;2023-03-20T09:10:42;22.80;63.40
18412;DHT22;27097;51.738;19.472;2023-03-20T09:13:10;22.80;63.20
18412;DHT22;27097;51.738;19.472;2023-03-20T09:15:37;22.80;63.30
18412;DHT22;27097;51.738;19.472;2023-03-20T09:18:04;22.80;63.10
18412;DHT22;27097;51.738;19.472;2023-03-20T09:20:30;22.90;63.30
18412;DHT22;27097;51.738;19.472;2023-03-20T09:22:59;22.90;63.90
18412;DHT22;27097;51.738;19.472;2023-03-20T09:25:26;22.90;63.90
18412;DHT22;27097;51.738;19.472;2023-03-20T09:27:53;22.80;64.00
18412;DHT22;27097;51.738;19.472;2023-03-20T09:30:21;22.90;64.70
18412;DHT22;27097;51.738;19.472;2023-03-20T09:32:48;22.80;65.20
18412;DHT22;27097;51.738;19.472;2023-03-20T09:35:16;22.80;65.80
18412;DHT22;27097;51.738;19.472;2023-03-20T09:37:43;22.80;65.80
18412;DHT22;27097;51.738;19.472;2023-03-20T09:40:21;22.80;66.40
18412;DHT22;27097;51.738;19.472;2023-03-20T09:42:54;22.80;66.90
18412;DHT22;27097;51.738;19.472;2023-03-20T09:45:32;22.80;67.00
18412;DHT22;27097;51.738;19.472;2023-03-20T09:48:05;22.70;54.60
18412;DHT22;27097;51.738;19.472;2023-03-20T09:50:37;22.60;52.70
18412;DHT22;27097;51.738;19.472;2023-03-20T09:53:11;22.40;53.70
18412;DHT22;27097;51.738;19.472;2023-03-20T09:55:41;22.30;57.20
18412;DHT22;27097;51.738;19.472;2023-03-20T09:58:12;22.30;65.60
18412;DHT22;27097;51.738;19.472;2023-03-20T10:00:44;22.30;66.80
18412;DHT22;27097;51.738;19.472;2023-03-20T10:03:17;22.40;67.00
18412;DHT22;27097;51.738;19.472;2023-03-20T10:05:49;22.40;67.90
18412;DHT22;27097;51.738;19.472;2023-03-20T10:08:20;22.40;68.50
18412;DHT22;27097;51.738;19.472;2023-03-20T10:10:56;22.50;68.60
18412;DHT22;27097;51.738;19.472;2023-03-20T10:13:43;22.50;69.00
18412;DHT22;27097;51.738;19.472;2023-03-20T10:16:18;22.50;69.30
18412;DHT22;27097;51.738;19.472;2023-03-20T10:18:55;22.50;69.80
18412;DHT22;27097;51.738;19.472;2023-03-20T10:21:30;22.50;70.20
18412;DHT22;27097;51.738;19.472;2023-03-20T10:24:02;22.50;70.50
18412;DHT22;27097;51.738;19.472;2023-03-20T10:26:33;22.50;71.20
18412;DHT22;27097;51.738;19.472;2023-03-20T10:29:03;22.50;70.60
18412;DHT22;27097;51.738;19.472;2023-03-20T10:31:38;22.50;72.10
18412;DHT22;27097;51.738;19.472;2023-03-20T10:34:40;22.50;72.90
18412;DHT22;27097;51.738;19.472;2023-03-20T10:37:26;22.50;73.20
18412;DHT22;27097;51.738;19.472;2023-03-20T10:40:02;22.50;73.40
18412;DHT22;27097;51.738;19.472;2023-03-20T10:42:38;22.50;73.20
18412;DHT22;27097;51.738;19.472;2023-03-20T10:45:28;22.50;73.50
18412;DHT22;27097;51.738;19.472;2023-03-20T10:47:59;22.50;66.40
18412;DHT22;27097;51.738;19.472;2023-03-20T10:50:28;22.40;60.20
18412;DHT22;27097;51.738;19.472;2023-03-20T10:52:58;22.30;61.10
18412;DHT22;27097;51.738;19.472;2023-03-20T10:55:28;22.20;58.30
18412;DHT22;27097;51.738;19.472;2023-03-20T10:58:02;22.10;59.90
18412;DHT22;27097;51.738;19.472;2023-03-20T11:00:31;22.00;59.80
18412;DHT22;27097;51.738;19.472;2023-03-20T11:02:58;21.90;60.30
18412;DHT22;27097;51.738;19.472;2023-03-20T11:05:29;21.90;59.10
18412;DHT22;27097;51.738;19.472;2023-03-20T11:08:02;21.80;57.10
18412;DHT22;27097;51.738;19.472;2023-03-20T11:10:32;21.70;57.70
18412;DHT22;27097;51.738;19.472;2023-03-20T11:13:14;21.60;57.70
18412;DHT22;27097;51.738;19.472;2023-03-20T11:15:44;21.50;60.00
18412;DHT22;27097;51.738;19.472;2023-03-20T11:18:12;21.60;63.80
18412;DHT22;27097;51.738;19.472;2023-03-20T11:20:45;21.60;66.00
18412;DHT22;27097;51.738;19.472;2023-03-20T11:23:15;21.70;67.10
18412;DHT22;27097;51.738;19.472;2023-03-20T11:25:49;21.70;68.70
18412;DHT22;27097;51.738;19.472;2023-03-20T11:28:29;21.80;68.00
18412;DHT22;27097;51.738;19.472;2023-03-20T11:30:59;21.80;67.80
18412;DHT22;27097;51.738;19.472;2023-03-20T11:33:27;21.90;68.50
18412;DHT22;27097;51.738;19.472;2023-03-20T11:35:56;21.90;68.50
18412;DHT22;27097;51.738;19.472;2023-03-20T11:38:23;21.90;67.40
18412;DHT22;27097;51.738;19.472;2023-03-20T11:40:51;21.90;69.20
18412;DHT22;27097;51.738;19.472;2023-03-20T11:43:20;22.00;69.80
18412;DHT22;27097;51.738;19.472;2023-03-20T11:45:52;22.00;70.10
18412;DHT22;27097;51.738;19.472;2023-03-20T11:48:22;22.00;68.80
18412;DHT22;27097;51.738;19.472;2023-03-20T11:51:01;22.00;70.20
18412;DHT22;27097;51.738;19.472;2023-03-20T11:53:58;22.00;69.90
18412;DHT22;27097;51.738;19.472;2023-03-20T11:56:27;22.10;71.50
18412;DHT22;27097;51.738;19.472;2023-03-20T11:58:56;22.10;71.20
18412;DHT22;27097;51.738;19.472;2023-03-20T12:01:26;22.10;70.70
18412;DHT22;27097;51.738;19.472;2023-03-20T12:04:01;22.10;70.90
18412;DHT22;27097;51.738;19.472;2023-03-20T12:06:39;22.10;71.40
18412;DHT22;27097;51.738;19.472;2023-03-20T12:09:11;22.10;71.40
18412;DHT22;27097;51.738;19.472;2023-03-20T12:11:44;22.10;71.00
18412;DHT22;27097;51.738;19.472;2023-03-20T12:14:22;22.10;72.00
18412;DHT22;27097;51.738;19.472;2023-03-20T12:16:59;22.10;72.00
18412;DHT22;27097;51.738;19.472;2023-03-20T12:19:29;22.10;72.70
18412;DHT22;27097;51.738;19.472;2023-03-20T12:22:01;22.10;72.90
18412;DHT22;27097;51.738;19.472;2023-03-20T12:24:36;22.20;73.60
18412;DHT22;27097;51.738;19.472;2023-03-20T12:27:16;22.20;74.30
18412;DHT22;27097;51.738;19.472;2023-03-20T12:29:47;22.20;73.70
18412;DHT22;27097;51.738;19.472;2023-03-20T12:32:22;22.20;75.80
18412;DHT22;27097;51.738;19.472;2023-03-20T12:34:55;22.20;76.50
18412;DHT22;27097;51.738;19.472;2023-03-20T12:37:22;22.20;77.70
18412;DHT22;27097;51.738;19.472;2023-03-20T12:39:52;22.20;76.50
18412;DHT22;27097;51.738;19.472;2023-03-20T12:42:30;22.20;76.90
18412;DHT22;27097;51.738;19.472;2023-03-20T12:45:05;22.30;78.30
18412;DHT22;27097;51.738;19.472;2023-03-20T12:50:51;22.30;77.90
18412;DHT22;27097;51.738;19.472;2023-03-20T12:53:31;22.30;77.90
18412;DHT22;27097;51.738;19.472;2023-03-20T12:56:10;22.30;77.80
18412;DHT22;27097;51.738;19.472;2023-03-20T12:58:43;22.30;78.30
18412;DHT22;27097;51.738;19.472;2023-03-20T13:01:15;22.40;78.90
18412;DHT22;27097;51.738;19.472;2023-03-20T13:06:59;22.40;78.30
18412;DHT22;27097;51.738;19.472;2023-03-20T13:09:54;22.50;78.30
18412;DHT22;27097;51.738;19.472;2023-03-20T13:12:34;22.40;78.10
18412;DHT22;27097;51.738;19.472;2023-03-20T13:15:12;22.40;78.80
18412;DHT22;27097;51.738;19.472;2023-03-20T13:17:45;22.30;78.30
18412;DHT22;27097;51.738;19.472;2023-03-20T13:20:21;22.30;77.90
18412;DHT22;27097;51.738;19.472;2023-03-20T13:22:59;22.30;77.40
18412;DHT22;27097;51.738;19.472;2023-03-20T13:25:44;22.30;77.00
18412;DHT22;27097;51.738;19.472;2023-03-20T13:28:23;22.30;77.20
18412;DHT22;27097;51.738;19.472;2023-03-20T13:30:58;22.40;76.10
18412;DHT22;27097;51.738;19.472;2023-03-20T13:41:46;22.30;75.70
18412;DHT22;27097;51.738;19.472;2023-03-20T13:44:23;22.30;75.60
18412;DHT22;27097;51.738;19.472;2023-03-20T13:49:59;22.30;75.30
18412;DHT22;27097;51.738;19.472;2023-03-20T13:52:32;22.30;75.00
18412;DHT22;27097;51.738;19.472;2023-03-20T13:55:15;22.30;75.20
18412;DHT22;27097;51.738;19.472;2023-03-20T13:58:00;22.30;74.90
18412;DHT22;27097;51.738;19.472;2023-03-20T14:04:01;22.30;74.70
18412;DHT22;27097;51.738;19.472;2023-03-20T14:06:50;22.30;74.60
18412;DHT22;27097;51.738;19.472;2023-03-20T14:09:29;22.20;74.50
18412;DHT22;27097;51.738;19.472;2023-03-20T14:12:00;22.30;74.50
18412;DHT22;27097;51.738;19.472;2023-03-20T14:14:30;22.20;74.20
18412;DHT22;27097;51.738;19.472;2023-03-20T14:17:03;22.30;74.20
18412;DHT22;27097;51.738;19.472;2023-03-20T14:19:36;22.30;74.40
18412;DHT22;27097;51.738;19.472;2023-03-20T14:22:04;22.20;73.30
18412;DHT22;27097;51.738;19.472;2023-03-20T14:24:35;22.20;72.60
18412;DHT22;27097;51.738;19.472;2023-03-20T14:27:02;22.30;72.50
18412;DHT22;27097;51.738;19.472;2023-03-20T14:29:36;22.30;72.20
18412;DHT22;27097;51.738;19.472;2023-03-20T14:34:48;22.40;72.20
18412;DHT22;27097;51.738;19.472;2023-03-20T14:37:34;22.40;72.90
18412;DHT22;27097;51.738;19.472;2023-03-20T14:40:13;22.40;72.90
18412;DHT22;27097;51.738;19.472;2023-03-20T14:42:48;22.40;72.80
18412;DHT22;27097;51.738;19.472;2023-03-20T14:45:40;22.40;72.50
18412;DHT22;27097;51.738;19.472;2023-03-20T14:48:17;22.40;71.40
18412;DHT22;27097;51.738;19.472;2023-03-20T14:51:01;22.40;71.40
18412;DHT22;27097;51.738;19.472;2023-03-20T14:53:30;22.40;71.80
18412;DHT22;27097;51.738;19.472;2023-03-20T14:56:05;22.30;73.10
18412;DHT22;27097;51.738;19.472;2023-03-20T14:58:51;22.40;75.00
18412;DHT22;27097;51.738;19.472;2023-03-20T15:01:39;22.30;73.60
18412;DHT22;27097;51.738;19.472;2023-03-20T15:04:19;22.30;73.60
18412;DHT22;27097;51.738;19.472;2023-03-20T15:06:52;22.30;73.70
18412;DHT22;27097;51.738;19.472;2023-03-20T15:09:22;22.30;73.80
18412;DHT22;27097;51.738;19.472;2023-03-20T15:11:51;22.30;73.90
18412;DHT22;27097;51.738;19.472;2023-03-20T15:14:21;22.30;73.40
18412;DHT22;27097;51.738;19.472;2023-03-20T15:16:58;22.30;72.90
18412;DHT22;27097;51.738;19.472;2023-03-20T15:19:27;22.30;71.60
18412;DHT22;27097;51.738;19.472;2023-03-20T15:21:57;22.30;72.10
18412;DHT22;27097;51.738;19.472;2023-03-20T15:24:26;22.30;71.80
18412;DHT22;27097;51.738;19.472;2023-03-20T15:26:56;22.30;71.60
18412;DHT22;27097;51.738;19.472;2023-03-20T15:29:24;22.30;71.20
18412;DHT22;27097;51.738;19.472;2023-03-20T15:31:54;22.30;71.20
18412;DHT22;27097;51.738;19.472;2023-03-20T15:34:25;22.30;71.70
18412;DHT22;27097;51.738;19.472;2023-03-20T15:36:55;22.30;71.10
18412;DHT22;27097;51.738;19.472;2023-03-20T15:39:24;22.30;71.30
18412;DHT22;27097;51.738;19.472;2023-03-20T15:41:53;22.30;70.60
18412;DHT22;27097;51.738;19.472;2023-03-20T15:44:22;22.20;70.60
18412;DHT22;27097;51.738;19.472;2023-03-20T15:46:55;22.30;70.70
18412;DHT22;27097;51.738;19.472;2023-03-20T15:49:24;22.20;70.60
18412;DHT22;27097;51.738;19.472;2023-03-20T15:51:53;22.30;70.40
18412;DHT22;27097;51.738;19.472;2023-03-20T15:54:21;22.30;70.70
18412;DHT22;27097;51.738;19.472;2023-03-20T15:56:50;22.20;70.50
18412;DHT22;27097;51.738;19.472;2023-03-20T15:59:20;22.20;67.80
18412;DHT22;27097;51.738;19.472;2023-03-20T16:01:52;22.20;68.00
18412;DHT22;27097;51.738;19.472;2023-03-20T16:04:19;22.20;65.60
18412;DHT22;27097;51.738;19.472;2023-03-20T16:06:51;22.20;67.00